createdAt,value
2022-10-29T00:04:47.833Z,62.80
2022-10-29T00:10:49.755Z,55.88
2022-10-29T00:16:52.015Z,57.37
2022-10-29T00:22:55.571Z,62.83
2022-10-29T00:28:57.977Z,65.35
2022-10-29T00:35:00.104Z,70.47
2022-10-29T00:41:03.745Z,66.27
2022-10-29T00:47:26.545Z,65.82
2022-10-29T00:53:32.894Z,74.77
2022-10-29T00:59:34.974Z,65.15
2022-10-29T01:05:37.402Z,60.73
2022-10-29T01:11:55.549Z,51.00
2022-10-29T01:18:21.247Z,51.80
2022-10-29T01:24:41.884Z,53.65
2022-10-29T01:31:05.791Z,61.00
2022-10-29T01:37:52.629Z,61.72
2022-10-29T01:44:02.072Z,54.65
2022-10-29T01:50:08.035Z,54.10
2022-10-29T01:56:09.991Z,50.03
2022-10-29T02:02:34.402Z,57.30
2022-10-29T02:09:15.653Z,52.92
2022-10-29T02:15:30.654Z,55.05
2022-10-29T02:21:32.883Z,54.25
2022-10-29T02:27:34.956Z,67.00
2022-10-29T02:33:37.049Z,59.10
2022-10-29T02:39:39.040Z,50.43
2022-10-29T02:45:41.182Z,48.23
2022-10-29T02:51:43.227Z,71.80
2022-10-29T02:57:46.016Z,64.27
2022-10-29T03:09:49.999Z,58.38
2022-10-29T03:15:52.142Z,62.43
2022-10-29T03:21:54.198Z,49.70
2022-10-29T03:27:56.635Z,48.27
2022-10-29T03:40:01.069Z,50.28
2022-10-29T03:46:03.617Z,45.65
2022-10-29T03:52:05.601Z,46.28
2022-10-29T03:58:07.725Z,43.87
2022-10-29T04:04:10.450Z,42.77
2022-10-29T04:16:14.413Z,46.08
2022-10-29T04:24:56.049Z,39.83
2022-10-29T04:28:42.873Z,47.70
2022-10-29T04:34:45.804Z,49.67
2022-10-29T04:40:47.937Z,46.63
2022-10-29T04:46:49.903Z,38.37
2022-10-29T04:52:52.026Z,45.63
2022-10-29T04:58:54.304Z,36.87
2022-10-29T05:04:56.417Z,42.25
2022-10-29T05:11:01.396Z,37.90
2022-10-29T05:17:03.518Z,39.40
2022-10-29T05:23:07.528Z,41.20
2022-10-29T05:29:09.492Z,37.75
2022-10-29T05:35:11.642Z,41.93
2022-10-29T05:41:13.657Z,53.17
2022-10-29T05:47:15.773Z,39.93
2022-10-29T05:53:19.476Z,46.00
2022-10-29T05:59:21.546Z,58.78
2022-10-29T06:05:23.773Z,78.77
2022-10-29T06:11:26.136Z,50.55
2022-10-29T06:17:28.160Z,67.28
2022-10-29T06:23:30.246Z,49.13
2022-10-29T06:41:57.066Z,41.83
2022-10-29T06:47:59.585Z,48.35
2022-10-29T06:54:01.880Z,39.78
2022-10-29T07:00:10.277Z,45.17
2022-10-29T07:06:12.403Z,33.30
2022-10-29T07:12:14.912Z,42.67
2022-10-29T07:24:18.968Z,36.45
2022-10-29T07:30:21.729Z,41.00
2022-10-29T07:36:24.087Z,50.50
2022-10-29T07:48:28.301Z,38.83
2022-10-29T07:54:30.293Z,31.42
2022-10-29T08:00:35.004Z,32.60
2022-10-29T08:06:37.152Z,31.63
2022-10-29T08:12:39.211Z,47.78
2022-10-29T08:24:43.222Z,43.95
2022-10-29T08:30:49.421Z,36.58
2022-10-29T08:36:51.559Z,28.58
2022-10-29T08:43:15.299Z,44.47
2022-10-29T08:49:24.585Z,35.65
2022-10-29T08:55:37.489Z,39.42
2022-10-29T09:08:02.438Z,29.75
2022-10-29T09:14:29.453Z,29.27
2022-10-29T09:20:56.132Z,27.25
2022-10-29T09:26:59.512Z,38.17
2022-10-29T09:33:11.253Z,24.88
2022-10-29T09:39:18.851Z,24.52
2022-10-29T09:45:30.122Z,25.20
2022-10-29T09:51:51.554Z,32.38
2022-10-29T09:57:55.712Z,29.08
2022-10-29T10:10:24.502Z,33.72
2022-10-29T10:16:33.404Z,31.10
2022-10-29T10:22:47.102Z,26.27
2022-10-29T10:29:05.059Z,21.55
2022-10-29T10:35:45.657Z,27.65
2022-10-29T10:41:50.282Z,27.98
2022-10-29T10:47:57.970Z,33.72
2022-10-29T10:54:03.522Z,22.17
2022-10-29T11:00:18.151Z,16.20
2022-10-29T11:06:30.281Z,26.13
2022-10-29T11:12:44.115Z,16.75
2022-10-29T11:18:54.453Z,14.43
2022-10-29T11:25:26.834Z,10.27
2022-10-29T11:31:43.093Z,13.63
2022-10-29T11:38:06.597Z,9.93
2022-10-29T11:44:13.365Z,12.45
2022-10-29T11:50:24.332Z,17.60
2022-10-29T11:56:46.420Z,11.93
2022-10-29T12:03:08.087Z,13.38
2022-10-29T12:09:31.672Z,23.13
2022-10-29T12:15:48.971Z,21.65
2022-10-29T12:22:00.875Z,12.73
2022-10-29T12:28:19.327Z,11.93
2022-10-29T12:34:49.214Z,13.73
2022-10-29T12:40:59.821Z,17.27
2022-10-29T12:47:20.877Z,23.38
2022-10-29T12:54:01.455Z,20.92
2022-10-29T13:00:47.708Z,17.10
2022-10-29T13:07:18.663Z,12.95
2022-10-29T13:13:27.502Z,16.30
2022-10-29T13:19:43.477Z,9.30
2022-10-29T13:25:48.873Z,15.98
2022-10-29T13:31:50.939Z,13.07
2022-10-29T13:37:54.429Z,15.40
2022-10-29T13:43:59.363Z,19.80
2022-10-29T13:50:01.651Z,13.63
2022-10-29T13:56:08.938Z,15.20
2022-10-29T14:02:22.341Z,18.85
2022-10-29T14:08:53.327Z,11.05
2022-10-29T14:15:12.407Z,25.08
2022-10-29T14:21:29.506Z,23.92
2022-10-29T14:27:31.573Z,24.08
2022-10-29T14:33:37.352Z,21.90
2022-10-29T14:39:57.579Z,16.30
2022-10-29T14:46:17.098Z,22.10
2022-10-29T14:52:43.030Z,16.25
2022-10-29T14:58:45.148Z,29.63
2022-10-29T15:04:50.900Z,17.35
2022-10-29T15:10:55.249Z,17.73
2022-10-29T15:16:58.107Z,25.83
2022-10-29T15:23:00.443Z,18.55
2022-10-29T15:29:09.347Z,13.93
2022-10-29T15:35:11.839Z,24.27
2022-10-29T15:47:27.886Z,17.25
2022-10-29T15:53:30.259Z,21.85
2022-10-29T15:59:32.301Z,26.10
2022-10-29T16:05:34.406Z,21.63
2022-10-29T16:11:36.581Z,23.65
2022-10-29T16:17:38.727Z,40.28
2022-10-29T16:23:41.481Z,29.55
2022-10-29T16:35:45.720Z,39.75
2022-10-29T16:41:48.067Z,49.15
2022-10-29T16:47:52.293Z,41.08
2022-10-29T16:53:55.180Z,41.85
2022-10-29T16:59:57.676Z,47.30
2022-10-29T17:06:05.477Z,32.03
2022-10-29T17:12:07.993Z,39.00
2022-10-29T17:18:10.443Z,37.55
2022-10-29T17:24:12.764Z,39.88
2022-10-29T17:30:15.127Z,42.80
2022-10-29T17:36:18.728Z,54.67
2022-10-29T17:42:21.288Z,51.92
2022-10-29T17:54:28.275Z,51.45
2022-10-29T18:00:30.358Z,55.55
2022-10-29T18:06:33.193Z,83.57
2022-10-29T18:18:54.317Z,46.05
2022-10-29T18:25:02.743Z,66.78
2022-10-29T18:37:07.932Z,63.30
2022-10-29T18:43:10.357Z,52.67
2022-10-29T18:49:13.304Z,69.03
2022-10-29T18:55:15.707Z,63.10
2022-10-29T19:01:20.466Z,51.42
2022-10-29T19:07:23.399Z,49.92
2022-10-29T19:19:28.228Z,47.50
2022-10-29T19:25:35.073Z,61.30
2022-10-29T19:31:40.615Z,47.55
2022-10-29T19:43:45.449Z,44.53
2022-10-29T19:49:47.582Z,53.22
2022-10-29T19:55:50.706Z,49.42
2022-10-29T20:07:56.167Z,39.22
2022-10-29T20:13:58.653Z,44.70
2022-10-29T20:20:00.801Z,32.20
2022-10-29T20:26:03.210Z,43.13
2022-10-29T20:32:05.484Z,34.28
2022-10-29T20:38:07.527Z,28.92
2022-10-29T20:44:10.286Z,33.33
2022-10-29T20:56:16.372Z,29.55
2022-10-29T21:02:19.096Z,33.58
2022-10-29T21:08:21.411Z,36.92
2022-10-29T21:14:23.825Z,40.85
2022-10-29T21:20:25.898Z,47.45
2022-10-29T21:26:28.983Z,43.53
2022-10-29T21:32:31.143Z,31.52
2022-10-29T21:38:33.846Z,34.10
2022-10-29T21:50:38.874Z,44.45
2022-10-29T21:56:40.981Z,30.27
2022-10-29T22:02:43.083Z,41.13
2022-10-29T22:08:45.957Z,38.40
2022-10-29T22:14:48.682Z,26.70
2022-10-29T22:26:52.940Z,31.65
2022-10-29T22:32:55.021Z,26.95
2022-10-29T22:38:58.886Z,29.43
2022-10-29T22:45:00.956Z,26.35
2022-10-29T22:51:05.673Z,22.37
2022-10-29T22:57:08.332Z,27.52
2022-10-29T23:09:12.415Z,22.08
2022-10-29T23:15:14.690Z,30.67
2022-10-29T23:21:17.095Z,33.58
2022-10-29T23:27:19.275Z,23.95
2022-10-29T23:33:21.430Z,20.92
2022-10-29T23:39:23.485Z,22.58
2022-10-29T23:45:25.606Z,21.07
2022-10-29T23:51:27.849Z,30.35
2022-10-29T23:57:30.161Z,25.67
